Main page
METAR-TAF:

METAR-TAF

Airports :

Verona, Italy

Verona Villafranca Airport

latitude: 45-23N, longitude: 010-52E, elevation: 67 m

Current weather observation

The report was made 31 minutes ago, at 09:20 UTC
Wind 2 kt from variable directions
Temperature 4°C
Humidity 75%
Pressure 1022 hPa
Visibility 10 km or more
no clouds below 1500 m and no cumulonimbus

METAR: LIPX 230920Z VRB02KT CAVOK 04/00 Q1022

Time: 10:51 (09:51 UTC)

Forecast

The report was made 1 hour and 51 minutes ago, at 08:00 UTC
Forecast valid from 23 at 09 UTC to 23 at 18 UTC
Wind 5 kt from variable directions
Visibility 10 km or more
no clouds below 1500 m and no cumulonimbus

TAF: LIPX 230800Z 2309/2318 VRB05KT CAVOK

Weather observations and forecasts of more than 4000 airports (METAR and TAF reports).

The available stations are represented by yellow and red dots on the map.

Hover mouse over dot to see the name of the station.

Then click to see weather observations and forecasts.

To change the map : click on the green buttons with a black cross to zoom in, on the green button with a dash to zoom out, or on the green arrows for adjacent maps.


METAR-TAF: